Terminal Aerodrome Forecast
Issued by NWS Mt. Holly, NJ

Home | Current Version | Previous Version | Text Only | Print | Product List | Glossary On
Versions: 1 2 3 4 5 6 7 8 9 10 11 12 13 14 15 16 17 18 19 20 21 22 23 24 25 26 27 28 29 30 31 32 33 34 35 36 37 38 39 40 41 42 43 44 45 46 47 48 49 50
003
FTUS41 KPHI 300322 AAA
TAFABE
TAF AMD
KABE 300322Z 3003/3024 09005KT P6SM OVC025
      TEMPO 3003/3006 4SM -SHRA BR OVC015
     FM300600 07005KT 4SM BR OVC015
     FM301200 05004KT P6SM OVC020
     FM301500 09006KT P6SM BKN040
     FM301800 16005KT P6SM OVC050=

USA.gov is the U.S. government's official web portal to all federal, state and local government web resources and services.